sensor_id;sensor_type;location;lat;lon;timestamp;temperature;humidity
18384;DHT22;9318;48.644;9.456;2023-07-13T00:00:03;19.80;99.90
18384;DHT22;9318;48.644;9.456;2023-07-13T00:02:34;19.80;99.90
18384;DHT22;9318;48.644;9.456;2023-07-13T00:05:01;19.80;99.90
18384;DHT22;9318;48.644;9.456;2023-07-13T00:07:28;19.70;99.90
18384;DHT22;9318;48.644;9.456;2023-07-13T00:09:56;19.60;99.90
18384;DHT22;9318;48.644;9.456;2023-07-13T00:12:27;19.60;99.90
18384;DHT22;9318;48.644;9.456;2023-07-13T00:14:56;19.50;99.90
18384;DHT22;9318;48.644;9.456;2023-07-13T00:17:24;19.50;99.90
18384;DHT22;9318;48.644;9.456;2023-07-13T00:19:51;19.50;99.90
18384;DHT22;9318;48.644;9.456;2023-07-13T00:22:18;19.50;99.90
18384;DHT22;9318;48.644;9.456;2023-07-13T00:24:45;19.50;99.90
18384;DHT22;9318;48.644;9.456;2023-07-13T00:27:12;19.50;99.90
18384;DHT22;9318;48.644;9.456;2023-07-13T00:29:39;19.40;99.90
18384;DHT22;9318;48.644;9.456;2023-07-13T00:32:09;19.40;99.90
18384;DHT22;9318;48.644;9.456;2023-07-13T00:34:36;19.30;99.90
18384;DHT22;9318;48.644;9.456;2023-07-13T00:37:04;19.30;99.90
18384;DHT22;9318;48.644;9.456;2023-07-13T00:39:32;19.30;99.90
18384;DHT22;9318;48.644;9.456;2023-07-13T00:41:59;19.30;99.90
18384;DHT22;9318;48.644;9.456;2023-07-13T00:44:26;19.20;99.90
18384;DHT22;9318;48.644;9.456;2023-07-13T00:46:52;19.30;99.90
18384;DHT22;9318;48.644;9.456;2023-07-13T00:49:24;19.20;99.90
18384;DHT22;9318;48.644;9.456;2023-07-13T00:51:55;19.20;99.90
18384;DHT22;9318;48.644;9.456;2023-07-13T00:54:24;19.10;99.90
18384;DHT22;9318;48.644;9.456;2023-07-13T00:56:57;19.00;99.90
18384;DHT22;9318;48.644;9.456;2023-07-13T00:59:24;19.00;99.90
18384;DHT22;9318;48.644;9.456;2023-07-13T01:01:51;19.00;99.90
18384;DHT22;9318;48.644;9.456;2023-07-13T01:04:18;18.90;99.90
18384;DHT22;9318;48.644;9.456;2023-07-13T01:06:47;18.80;99.90
18384;DHT22;9318;48.644;9.456;2023-07-13T01:09:14;18.70;99.90
18384;DHT22;9318;48.644;9.456;2023-07-13T01:11:41;18.60;99.90
18384;DHT22;9318;48.644;9.456;2023-07-13T01:14:10;18.50;99.90
18384;DHT22;9318;48.644;9.456;2023-07-13T01:16:39;18.40;99.90
18384;DHT22;9318;48.644;9.456;2023-07-13T01:19:13;18.30;99.90
18384;DHT22;9318;48.644;9.456;2023-07-13T01:21:43;18.30;99.90
18384;DHT22;9318;48.644;9.456;2023-07-13T01:24:10;18.20;99.90
18384;DHT22;9318;48.644;9.456;2023-07-13T01:26:36;18.10;99.90
18384;DHT22;9318;48.644;9.456;2023-07-13T01:29:03;18.00;99.90
18384;DHT22;9318;48.644;9.456;2023-07-13T01:31:30;17.90;99.90
18384;DHT22;9318;48.644;9.456;2023-07-13T01:33:57;17.90;99.90
18384;DHT22;9318;48.644;9.456;2023-07-13T01:36:24;17.80;99.90
18384;DHT22;9318;48.644;9.456;2023-07-13T01:38:52;17.70;99.90
18384;DHT22;9318;48.644;9.456;2023-07-13T01:41:19;17.60;99.90
18384;DHT22;9318;48.644;9.456;2023-07-13T01:43:46;17.50;99.90
18384;DHT22;9318;48.644;9.456;2023-07-13T01:46:13;17.50;99.90
18384;DHT22;9318;48.644;9.456;2023-07-13T01:48:39;17.40;99.90
18384;DHT22;9318;48.644;9.456;2023-07-13T01:51:06;17.20;99.90
18384;DHT22;9318;48.644;9.456;2023-07-13T01:53:33;17.10;99.90
18384;DHT22;9318;48.644;9.456;2023-07-13T01:56:01;17.10;99.90
18384;DHT22;9318;48.644;9.456;2023-07-13T01:58:27;17.00;99.90
18384;DHT22;9318;48.644;9.456;2023-07-13T02:00:54;17.00;99.90
18384;DHT22;9318;48.644;9.456;2023-07-13T02:03:21;17.00;99.90
18384;DHT22;9318;48.644;9.456;2023-07-13T02:05:48;17.00;99.90
18384;DHT22;9318;48.644;9.456;2023-07-13T02:08:14;17.00;99.90
18384;DHT22;9318;48.644;9.456;2023-07-13T02:10:41;17.00;99.90
18384;DHT22;9318;48.644;9.456;2023-07-13T02:13:09;16.90;99.90
18384;DHT22;9318;48.644;9.456;2023-07-13T02:15:38;16.90;99.90
18384;DHT22;9318;48.644;9.456;2023-07-13T02:18:06;16.90;99.90
18384;DHT22;9318;48.644;9.456;2023-07-13T02:20:33;16.80;99.90
18384;DHT22;9318;48.644;9.456;2023-07-13T02:22:59;16.70;99.90
18384;DHT22;9318;48.644;9.456;2023-07-13T02:25:26;16.70;99.90
18384;DHT22;9318;48.644;9.456;2023-07-13T02:27:53;16.60;99.90
18384;DHT22;9318;48.644;9.456;2023-07-13T02:30:21;16.50;99.90
18384;DHT22;9318;48.644;9.456;2023-07-13T02:32:50;16.40;99.90
18384;DHT22;9318;48.644;9.456;2023-07-13T02:35:17;16.40;99.90
18384;DHT22;9318;48.644;9.456;2023-07-13T02:37:43;16.30;99.90
18384;DHT22;9318;48.644;9.456;2023-07-13T02:40:10;16.30;99.90
18384;DHT22;9318;48.644;9.456;2023-07-13T02:42:37;16.20;99.90
18384;DHT22;9318;48.644;9.456;2023-07-13T02:45:05;16.20;99.90
18384;DHT22;9318;48.644;9.456;2023-07-13T02:47:33;16.10;99.90
18384;DHT22;9318;48.644;9.456;2023-07-13T02:50:00;16.10;99.90
18384;DHT22;9318;48.644;9.456;2023-07-13T02:52:27;16.10;99.90
18384;DHT22;9318;48.644;9.456;2023-07-13T02:54:54;16.00;99.90
18384;DHT22;9318;48.644;9.456;2023-07-13T02:57:20;15.90;99.90
18384;DHT22;9318;48.644;9.456;2023-07-13T02:59:47;15.90;99.90
18384;DHT22;9318;48.644;9.456;2023-07-13T03:02:14;15.80;99.90
18384;DHT22;9318;48.644;9.456;2023-07-13T03:04:42;15.80;99.90
18384;DHT22;9318;48.644;9.456;2023-07-13T03:07:09;15.80;99.90
18384;DHT22;9318;48.644;9.456;2023-07-13T03:09:35;15.80;99.90
18384;DHT22;9318;48.644;9.456;2023-07-13T03:12:03;15.70;99.90
18384;DHT22;9318;48.644;9.456;2023-07-13T03:14:29;15.60;99.90
18384;DHT22;9318;48.644;9.456;2023-07-13T03:16:56;15.60;99.90
18384;DHT22;9318;48.644;9.456;2023-07-13T03:19:23;15.60;99.90
18384;DHT22;9318;48.644;9.456;2023-07-13T03:21:51;15.50;99.90
18384;DHT22;9318;48.644;9.456;2023-07-13T03:24:18;15.50;99.90
18384;DHT22;9318;48.644;9.456;2023-07-13T03:26:46;15.50;99.90
18384;DHT22;9318;48.644;9.456;2023-07-13T03:29:13;15.50;99.90
18384;DHT22;9318;48.644;9.456;2023-07-13T03:31:40;15.50;99.90
18384;DHT22;9318;48.644;9.456;2023-07-13T03:34:07;15.50;99.90
18384;DHT22;9318;48.644;9.456;2023-07-13T03:36:33;15.50;99.90
18384;DHT22;9318;48.644;9.456;2023-07-13T03:39:03;15.50;99.90
18384;DHT22;9318;48.644;9.456;2023-07-13T03:41:33;15.50;99.90
18384;DHT22;9318;48.644;9.456;2023-07-13T03:44:00;15.50;99.90
18384;DHT22;9318;48.644;9.456;2023-07-13T03:46:27;15.50;99.90
18384;DHT22;9318;48.644;9.456;2023-07-13T03:48:54;15.60;99.90
18384;DHT22;9318;48.644;9.456;2023-07-13T03:51:21;15.70;99.90
18384;DHT22;9318;48.644;9.456;2023-07-13T03:53:48;15.70;99.90
18384;DHT22;9318;48.644;9.456;2023-07-13T03:56:17;15.80;99.90
18384;DHT22;9318;48.644;9.456;2023-07-13T03:58:46;15.80;99.90
18384;DHT22;9318;48.644;9.456;2023-07-13T04:01:14;15.90;99.90
18384;DHT22;9318;48.644;9.456;2023-07-13T04:03:42;15.90;99.90
18384;DHT22;9318;48.644;9.456;2023-07-13T04:06:14;16.00;99.90
18384;DHT22;9318;48.644;9.456;2023-07-13T04:08:47;16.10;99.90
18384;DHT22;9318;48.644;9.456;2023-07-13T04:11:17;16.10;99.90
18384;DHT22;9318;48.644;9.456;2023-07-13T04:13:43;16.20;99.90
18384;DHT22;9318;48.644;9.456;2023-07-13T04:16:10;16.30;99.90
18384;DHT22;9318;48.644;9.456;2023-07-13T04:18:37;16.30;99.90
18384;DHT22;9318;48.644;9.456;2023-07-13T04:21:04;16.40;99.90
18384;DHT22;9318;48.644;9.456;2023-07-13T04:23:30;16.50;99.90
18384;DHT22;9318;48.644;9.456;2023-07-13T04:25:57;16.50;99.90
18384;DHT22;9318;48.644;9.456;2023-07-13T04:28:26;16.60;99.90
18384;DHT22;9318;48.644;9.456;2023-07-13T04:30:53;16.50;99.90
18384;DHT22;9318;48.644;9.456;2023-07-13T04:33:20;16.60;99.90
18384;DHT22;9318;48.644;9.456;2023-07-13T04:35:49;16.60;99.90
18384;DHT22;9318;48.644;9.456;2023-07-13T04:38:22;16.60;99.90
18384;DHT22;9318;48.644;9.456;2023-07-13T04:40:50;16.60;99.90
18384;DHT22;9318;48.644;9.456;2023-07-13T04:43:17;16.60;99.90
18384;DHT22;9318;48.644;9.456;2023-07-13T04:45:45;16.70;99.90
18384;DHT22;9318;48.644;9.456;2023-07-13T04:48:12;16.70;99.90
18384;DHT22;9318;48.644;9.456;2023-07-13T04:50:39;16.80;99.90
18384;DHT22;9318;48.644;9.456;2023-07-13T04:53:06;16.90;99.90
18384;DHT22;9318;48.644;9.456;2023-07-13T04:55:33;16.90;99.90
18384;DHT22;9318;48.644;9.456;2023-07-13T04:58:00;17.00;99.90
18384;DHT22;9318;48.644;9.456;2023-07-13T05:00:28;17.00;99.90
18384;DHT22;9318;48.644;9.456;2023-07-13T05:02:57;17.00;99.90
18384;DHT22;9318;48.644;9.456;2023-07-13T05:05:25;17.10;99.90
18384;DHT22;9318;48.644;9.456;2023-07-13T05:07:53;17.00;99.90
18384;DHT22;9318;48.644;9.456;2023-07-13T05:10:20;17.00;99.90
18384;DHT22;9318;48.644;9.456;2023-07-13T05:12:46;17.10;99.90
18384;DHT22;9318;48.644;9.456;2023-07-13T05:15:14;17.10;99.90
18384;DHT22;9318;48.644;9.456;2023-07-13T05:17:41;17.20;99.90
18384;DHT22;9318;48.644;9.456;2023-07-13T05:20:09;17.30;99.90
18384;DHT22;9318;48.644;9.456;2023-07-13T05:22:36;17.30;99.90
18384;DHT22;9318;48.644;9.456;2023-07-13T05:25:05;17.40;99.90
18384;DHT22;9318;48.644;9.456;2023-07-13T05:27:32;17.40;99.90
18384;DHT22;9318;48.644;9.456;2023-07-13T05:29:58;17.50;99.90
18384;DHT22;9318;48.644;9.456;2023-07-13T05:32:25;17.70;99.90
18384;DHT22;9318;48.644;9.456;2023-07-13T05:34:52;17.80;99.90
18384;DHT22;9318;48.644;9.456;2023-07-13T05:37:20;18.00;99.90
18384;DHT22;9318;48.644;9.456;2023-07-13T05:39:47;18.30;99.90
18384;DHT22;9318;48.644;9.456;2023-07-13T05:42:14;18.70;99.90
18384;DHT22;9318;48.644;9.456;2023-07-13T05:44:41;19.10;99.90
18384;DHT22;9318;48.644;9.456;2023-07-13T05:47:08;19.50;99.90
18384;DHT22;9318;48.644;9.456;2023-07-13T05:49:34;19.80;99.90
18384;DHT22;9318;48.644;9.456;2023-07-13T05:52:01;20.00;99.90
18384;DHT22;9318;48.644;9.456;2023-07-13T05:54:29;20.10;99.90
18384;DHT22;9318;48.644;9.456;2023-07-13T05:56:56;20.10;99.90
18384;DHT22;9318;48.644;9.456;2023-07-13T05:59:23;20.10;99.90
18384;DHT22;9318;48.644;9.456;2023-07-13T06:01:50;20.10;99.90
18384;DHT22;9318;48.644;9.456;2023-07-13T06:04:18;20.00;99.90
18384;DHT22;9318;48.644;9.456;2023-07-13T06:06:44;19.80;99.90
18384;DHT22;9318;48.644;9.456;2023-07-13T06:09:11;19.70;99.90
18384;DHT22;9318;48.644;9.456;2023-07-13T06:11:39;19.60;99.90
18384;DHT22;9318;48.644;9.456;2023-07-13T06:14:06;19.60;99.90
18384;DHT22;9318;48.644;9.456;2023-07-13T06:16:33;19.50;99.90
18384;DHT22;9318;48.644;9.456;2023-07-13T06:18:59;19.60;99.90
18384;DHT22;9318;48.644;9.456;2023-07-13T06:21:26;19.60;99.90
18384;DHT22;9318;48.644;9.456;2023-07-13T06:23:53;19.70;99.90
18384;DHT22;9318;48.644;9.456;2023-07-13T06:26:20;19.80;99.90
18384;DHT22;9318;48.644;9.456;2023-07-13T06:28:48;20.40;99.90
18384;DHT22;9318;48.644;9.456;2023-07-13T06:31:15;21.60;99.90
18384;DHT22;9318;48.644;9.456;2023-07-13T06:33:42;22.80;99.90
18384;DHT22;9318;48.644;9.456;2023-07-13T06:36:10;23.90;99.90
18384;DHT22;9318;48.644;9.456;2023-07-13T06:38:37;24.30;99.90
18384;DHT22;9318;48.644;9.456;2023-07-13T06:41:06;24.60;99.90
18384;DHT22;9318;48.644;9.456;2023-07-13T06:43:33;25.30;99.90
18384;DHT22;9318;48.644;9.456;2023-07-13T06:46:01;26.00;99.90
18384;DHT22;9318;48.644;9.456;2023-07-13T06:48:28;26.50;99.90
18384;DHT22;9318;48.644;9.456;2023-07-13T06:50:54;26.50;99.90
18384;DHT22;9318;48.644;9.456;2023-07-13T06:53:22;26.40;99.90
18384;DHT22;9318;48.644;9.456;2023-07-13T06:55:49;26.50;99.90
18384;DHT22;9318;48.644;9.456;2023-07-13T06:58:18;26.90;99.10
18384;DHT22;9318;48.644;9.456;2023-07-13T07:00:45;27.20;98.80
18384;DHT22;9318;48.644;9.456;2023-07-13T07:03:13;28.20;96.60
18384;DHT22;9318;48.644;9.456;2023-07-13T07:05:40;29.30;94.30
18384;DHT22;9318;48.644;9.456;2023-07-13T07:08:07;30.20;91.50
18384;DHT22;9318;48.644;9.456;2023-07-13T07:10:35;30.90;88.10
18384;DHT22;9318;48.644;9.456;2023-07-13T07:13:02;31.70;82.80
18384;DHT22;9318;48.644;9.456;2023-07-13T07:15:29;31.80;78.80
18384;DHT22;9318;48.644;9.456;2023-07-13T07:17:56;32.10;78.20
18384;DHT22;9318;48.644;9.456;2023-07-13T07:20:24;32.40;75.90
18384;DHT22;9318;48.644;9.456;2023-07-13T07:22:51;32.80;76.60
18384;DHT22;9318;48.644;9.456;2023-07-13T07:25:18;33.40;74.80
18384;DHT22;9318;48.644;9.456;2023-07-13T07:27:45;33.70;71.30
18384;DHT22;9318;48.644;9.456;2023-07-13T07:30:12;34.00;68.90
18384;DHT22;9318;48.644;9.456;2023-07-13T07:32:40;34.10;68.30
18384;DHT22;9318;48.644;9.456;2023-07-13T07:35:08;34.40;63.40
18384;DHT22;9318;48.644;9.456;2023-07-13T07:37:36;35.00;62.60
18384;DHT22;9318;48.644;9.456;2023-07-13T07:40:03;35.20;61.00
18384;DHT22;9318;48.644;9.456;2023-07-13T07:42:30;35.80;59.10
18384;DHT22;9318;48.644;9.456;2023-07-13T07:44:56;36.40;58.10
18384;DHT22;9318;48.644;9.456;2023-07-13T07:47:23;36.60;55.40
18384;DHT22;9318;48.644;9.456;2023-07-13T07:49:50;36.90;55.20
18384;DHT22;9318;48.644;9.456;2023-07-13T07:52:18;36.50;53.50
18384;DHT22;9318;48.644;9.456;2023-07-13T07:54:46;36.10;53.50
18384;DHT22;9318;48.644;9.456;2023-07-13T07:57:13;36.20;56.70
18384;DHT22;9318;48.644;9.456;2023-07-13T07:59:39;37.00;54.20
18384;DHT22;9318;48.644;9.456;2023-07-13T08:02:08;37.40;52.20
18384;DHT22;9318;48.644;9.456;2023-07-13T08:04:35;37.80;49.90
18384;DHT22;9318;48.644;9.456;2023-07-13T08:07:02;38.00;50.70
18384;DHT22;9318;48.644;9.456;2023-07-13T08:09:29;38.40;48.70
18384;DHT22;9318;48.644;9.456;2023-07-13T08:11:57;38.80;48.50
18384;DHT22;9318;48.644;9.456;2023-07-13T08:14:24;39.00;48.80
18384;DHT22;9318;48.644;9.456;2023-07-13T08:16:50;39.10;45.80
18384;DHT22;9318;48.644;9.456;2023-07-13T08:19:17;39.50;46.90
18384;DHT22;9318;48.644;9.456;2023-07-13T08:21:44;39.40;47.90
18384;DHT22;9318;48.644;9.456;2023-07-13T08:24:13;39.80;45.70
18384;DHT22;9318;48.644;9.456;2023-07-13T08:26:40;39.90;46.20
18384;DHT22;9318;48.644;9.456;2023-07-13T08:29:08;40.00;46.10
18384;DHT22;9318;48.644;9.456;2023-07-13T08:31:35;40.20;44.70
18384;DHT22;9318;48.644;9.456;2023-07-13T08:34:02;40.30;45.60
18384;DHT22;9318;48.644;9.456;2023-07-13T08:36:29;40.30;45.30
18384;DHT22;9318;48.644;9.456;2023-07-13T08:38:56;39.70;44.10
18384;DHT22;9318;48.644;9.456;2023-07-13T08:41:23;39.40;44.10
18384;DHT22;9318;48.644;9.456;2023-07-13T08:43:51;39.00;46.30
18384;DHT22;9318;48.644;9.456;2023-07-13T08:46:25;38.80;46.00
18384;DHT22;9318;48.644;9.456;2023-07-13T08:48:55;38.50;46.20
18384;DHT22;9318;48.644;9.456;2023-07-13T08:51:35;38.70;50.20
18384;DHT22;9318;48.644;9.456;2023-07-13T08:54:11;38.50;46.20
18384;DHT22;9318;48.644;9.456;2023-07-13T08:56:39;38.00;45.40
18384;DHT22;9318;48.644;9.456;2023-07-13T08:59:11;37.60;47.40
18384;DHT22;9318;48.644;9.456;2023-07-13T09:01:52;37.00;47.00
18384;DHT22;9318;48.644;9.456;2023-07-13T09:04:23;36.50;48.90
18384;DHT22;9318;48.644;9.456;2023-07-13T09:07:00;35.90;50.70
18384;DHT22;9318;48.644;9.456;2023-07-13T09:09:33;35.60;50.20
18384;DHT22;9318;48.644;9.456;2023-07-13T09:12:10;35.40;52.50
18384;DHT22;9318;48.644;9.456;2023-07-13T09:14:42;35.30;50.80
18384;DHT22;9318;48.644;9.456;2023-07-13T09:17:18;34.70;50.70
18384;DHT22;9318;48.644;9.456;2023-07-13T09:19:48;34.20;50.00
18384;DHT22;9318;48.644;9.456;2023-07-13T09:22:19;34.00;53.30
18384;DHT22;9318;48.644;9.456;2023-07-13T09:25:00;33.50;53.50
18384;DHT22;9318;48.644;9.456;2023-07-13T09:27:33;33.00;54.10
18384;DHT22;9318;48.644;9.456;2023-07-13T09:30:15;32.50;56.30
18384;DHT22;9318;48.644;9.456;2023-07-13T09:32:50;32.10;57.90
18384;DHT22;9318;48.644;9.456;2023-07-13T09:35:20;31.60;55.70
18384;DHT22;9318;48.644;9.456;2023-07-13T09:37:48;31.30;56.10
18384;DHT22;9318;48.644;9.456;2023-07-13T09:40:20;30.80;56.10
18384;DHT22;9318;48.644;9.456;2023-07-13T09:42:49;30.30;58.10
18384;DHT22;9318;48.644;9.456;2023-07-13T09:45:26;29.60;58.50
18384;DHT22;9318;48.644;9.456;2023-07-13T09:48:04;29.40;61.00
18384;DHT22;9318;48.644;9.456;2023-07-13T09:50:31;29.40;63.40
18384;DHT22;9318;48.644;9.456;2023-07-13T09:52:58;29.40;60.30
18384;DHT22;9318;48.644;9.456;2023-07-13T09:55:29;29.30;60.60
18384;DHT22;9318;48.644;9.456;2023-07-13T09:57:56;29.20;61.30
18384;DHT22;9318;48.644;9.456;2023-07-13T10:00:25;29.20;58.00
18384;DHT22;9318;48.644;9.456;2023-07-13T10:03:03;29.20;62.50
18384;DHT22;9318;48.644;9.456;2023-07-13T10:05:38;29.40;61.70
18384;DHT22;9318;48.644;9.456;2023-07-13T10:08:05;29.30;60.40
18384;DHT22;9318;48.644;9.456;2023-07-13T10:10:33;29.40;60.20
18384;DHT22;9318;48.644;9.456;2023-07-13T10:13:02;29.50;62.60
18384;DHT22;9318;48.644;9.456;2023-07-13T10:15:30;29.70;61.60
18384;DHT22;9318;48.644;9.456;2023-07-13T10:17:57;29.50;58.00
18384;DHT22;9318;48.644;9.456;2023-07-13T10:20:26;29.50;64.60
18384;DHT22;9318;48.644;9.456;2023-07-13T10:22:57;29.50;58.00
18384;DHT22;9318;48.644;9.456;2023-07-13T10:25:26;29.40;58.70
18384;DHT22;9318;48.644;9.456;2023-07-13T10:27:58;29.50;61.90
18384;DHT22;9318;48.644;9.456;2023-07-13T10:30:31;29.50;62.60
18384;DHT22;9318;48.644;9.456;2023-07-13T10:33:02;29.50;58.40
18384;DHT22;9318;48.644;9.456;2023-07-13T10:35:31;29.40;58.30
18384;DHT22;9318;48.644;9.456;2023-07-13T10:38:02;29.30;59.60
18384;DHT22;9318;48.644;9.456;2023-07-13T10:40:35;29.20;60.20
18384;DHT22;9318;48.644;9.456;2023-07-13T10:43:06;29.20;59.70
18384;DHT22;9318;48.644;9.456;2023-07-13T10:45:36;29.20;58.20
18384;DHT22;9318;48.644;9.456;2023-07-13T10:48:04;28.90;57.70
18384;DHT22;9318;48.644;9.456;2023-07-13T10:50:34;28.60;60.90
18384;DHT22;9318;48.644;9.456;2023-07-13T10:53:03;28.60;61.20
18384;DHT22;9318;48.644;9.456;2023-07-13T10:55:56;28.50;60.40
18384;DHT22;9318;48.644;9.456;2023-07-13T10:58:29;28.30;59.80
18384;DHT22;9318;48.644;9.456;2023-07-13T11:01:09;28.20;62.50
18384;DHT22;9318;48.644;9.456;2023-07-13T11:03:45;28.30;61.50
18384;DHT22;9318;48.644;9.456;2023-07-13T11:06:36;28.30;61.00
18384;DHT22;9318;48.644;9.456;2023-07-13T11:09:18;28.40;66.00
18384;DHT22;9318;48.644;9.456;2023-07-13T11:11:45;28.50;62.70
18384;DHT22;9318;48.644;9.456;2023-07-13T11:14:34;28.50;60.20
18384;DHT22;9318;48.644;9.456;2023-07-13T11:17:29;28.40;62.90
18384;DHT22;9318;48.644;9.456;2023-07-13T11:23:28;28.60;62.30
18384;DHT22;9318;48.644;9.456;2023-07-13T11:25:55;29.00;61.00
18384;DHT22;9318;48.644;9.456;2023-07-13T11:28:24;29.10;62.90
18384;DHT22;9318;48.644;9.456;2023-07-13T11:31:14;29.40;66.50
18384;DHT22;9318;48.644;9.456;2023-07-13T11:33:52;29.80;60.30
18384;DHT22;9318;48.644;9.456;2023-07-13T11:36:21;29.90;61.50
18384;DHT22;9318;48.644;9.456;2023-07-13T11:38:59;29.80;62.00
18384;DHT22;9318;48.644;9.456;2023-07-13T11:41:29;29.90;59.00
18384;DHT22;9318;48.644;9.456;2023-07-13T11:44:05;30.00;61.60
18384;DHT22;9318;48.644;9.456;2023-07-13T11:46:32;30.00;61.90
18384;DHT22;9318;48.644;9.456;2023-07-13T11:48:59;30.00;60.60
18384;DHT22;9318;48.644;9.456;2023-07-13T11:51:29;29.90;64.50
18384;DHT22;9318;48.644;9.456;2023-07-13T11:54:01;29.90;62.30
18384;DHT22;9318;48.644;9.456;2023-07-13T11:56:29;30.00;62.90
18384;DHT22;9318;48.644;9.456;2023-07-13T11:59:02;30.00;58.40
18384;DHT22;9318;48.644;9.456;2023-07-13T12:01:31;30.10;58.90
18384;DHT22;9318;48.644;9.456;2023-07-13T12:04:00;29.70;60.20
18384;DHT22;9318;48.644;9.456;2023-07-13T12:06:29;29.90;63.10
18384;DHT22;9318;48.644;9.456;2023-07-13T12:08:59;30.00;63.10
18384;DHT22;9318;48.644;9.456;2023-07-13T12:11:29;30.10;59.60
18384;DHT22;9318;48.644;9.456;2023-07-13T12:13:56;30.10;57.20
18384;DHT22;9318;48.644;9.456;2023-07-13T12:16:28;29.90;58.50
18384;DHT22;9318;48.644;9.456;2023-07-13T12:18:56;29.90;60.60
18384;DHT22;9318;48.644;9.456;2023-07-13T12:21:29;29.90;65.50
18384;DHT22;9318;48.644;9.456;2023-07-13T12:23:58;30.00;63.40
18384;DHT22;9318;48.644;9.456;2023-07-13T12:26:28;30.20;60.10
18384;DHT22;9318;48.644;9.456;2023-07-13T12:28:55;30.20;60.50
18384;DHT22;9318;48.644;9.456;2023-07-13T12:31:26;29.90;59.60
18384;DHT22;9318;48.644;9.456;2023-07-13T12:33:57;29.20;60.00
18384;DHT22;9318;48.644;9.456;2023-07-13T12:36:24;28.50;59.00
18384;DHT22;9318;48.644;9.456;2023-07-13T12:38:51;28.50;62.40
18384;DHT22;9318;48.644;9.456;2023-07-13T12:41:19;28.70;62.40
18384;DHT22;9318;48.644;9.456;2023-07-13T12:43:48;28.80;61.70
18384;DHT22;9318;48.644;9.456;2023-07-13T12:46:18;28.80;62.00
18384;DHT22;9318;48.644;9.456;2023-07-13T12:48:49;28.80;61.00
18384;DHT22;9318;48.644;9.456;2023-07-13T12:51:17;28.80;64.20
18384;DHT22;9318;48.644;9.456;2023-07-13T12:53:50;28.50;61.20
18384;DHT22;9318;48.644;9.456;2023-07-13T12:56:22;28.00;60.50
18384;DHT22;9318;48.644;9.456;2023-07-13T12:58:51;27.90;62.90
18384;DHT22;9318;48.644;9.456;2023-07-13T13:01:21;27.80;62.50
18384;DHT22;9318;48.644;9.456;2023-07-13T13:03:50;27.70;65.00
18384;DHT22;9318;48.644;9.456;2023-07-13T13:06:23;27.90;67.20
18384;DHT22;9318;48.644;9.456;2023-07-13T13:08:51;28.30;61.50
18384;DHT22;9318;48.644;9.456;2023-07-13T13:11:21;28.40;61.00
18384;DHT22;9318;48.644;9.456;2023-07-13T13:13:49;28.50;64.00
18384;DHT22;9318;48.644;9.456;2023-07-13T13:16:22;28.50;60.10
18384;DHT22;9318;48.644;9.456;2023-07-13T13:18:51;28.20;63.10
18384;DHT22;9318;48.644;9.456;2023-07-13T13:21:19;28.10;63.80
18384;DHT22;9318;48.644;9.456;2023-07-13T13:23:47;27.90;63.10
18384;DHT22;9318;48.644;9.456;2023-07-13T13:26:15;28.10;61.60
18384;DHT22;9318;48.644;9.456;2023-07-13T13:28:44;28.20;65.10
18384;DHT22;9318;48.644;9.456;2023-07-13T13:31:13;28.20;60.80
18384;DHT22;9318;48.644;9.456;2023-07-13T13:33:42;28.30;63.40
18384;DHT22;9318;48.644;9.456;2023-07-13T13:36:15;28.30;59.80
18384;DHT22;9318;48.644;9.456;2023-07-13T13:38:43;28.20;61.80
18384;DHT22;9318;48.644;9.456;2023-07-13T13:41:10;28.10;63.20
18384;DHT22;9318;48.644;9.456;2023-07-13T13:43:39;28.20;66.30
18384;DHT22;9318;48.644;9.456;2023-07-13T13:46:14;28.30;61.40
18384;DHT22;9318;48.644;9.456;2023-07-13T13:48:41;28.20;62.10
18384;DHT22;9318;48.644;9.456;2023-07-13T13:51:14;28.00;63.10
18384;DHT22;9318;48.644;9.456;2023-07-13T13:53:40;27.90;62.50
18384;DHT22;9318;48.644;9.456;2023-07-13T13:56:08;27.70;66.20
18384;DHT22;9318;48.644;9.456;2023-07-13T13:58:35;27.50;61.20
18384;DHT22;9318;48.644;9.456;2023-07-13T14:01:02;27.50;64.30
18384;DHT22;9318;48.644;9.456;2023-07-13T14:03:32;27.50;65.20
18384;DHT22;9318;48.644;9.456;2023-07-13T14:05:59;27.50;64.40
18384;DHT22;9318;48.644;9.456;2023-07-13T14:08:26;27.40;60.90
18384;DHT22;9318;48.644;9.456;2023-07-13T14:10:55;27.30;62.00
18384;DHT22;9318;48.644;9.456;2023-07-13T14:13:25;27.50;61.80
18384;DHT22;9318;48.644;9.456;2023-07-13T14:15:54;27.60;61.40
18384;DHT22;9318;48.644;9.456;2023-07-13T14:18:21;27.80;60.00
18384;DHT22;9318;48.644;9.456;2023-07-13T14:20:50;27.90;60.10
18384;DHT22;9318;48.644;9.456;2023-07-13T14:23:18;28.00;61.30
18384;DHT22;9318;48.644;9.456;2023-07-13T14:25:45;28.00;61.60
18384;DHT22;9318;48.644;9.456;2023-07-13T14:28:20;28.10;63.10
18384;DHT22;9318;48.644;9.456;2023-07-13T14:30:47;28.10;60.90
18384;DHT22;9318;48.644;9.456;2023-07-13T14:33:14;28.00;61.70
18384;DHT22;9318;48.644;9.456;2023-07-13T14:35:41;28.00;60.80
18384;DHT22;9318;48.644;9.456;2023-07-13T14:38:12;28.00;61.10
18384;DHT22;9318;48.644;9.456;2023-07-13T14:40:39;27.90;60.60
18384;DHT22;9318;48.644;9.456;2023-07-13T14:43:10;27.90;59.70
18384;DHT22;9318;48.644;9.456;2023-07-13T14:45:39;27.90;63.10
18384;DHT22;9318;48.644;9.456;2023-07-13T14:48:14;28.00;61.60
18384;DHT22;9318;48.644;9.456;2023-07-13T14:50:41;27.90;63.40
18384;DHT22;9318;48.644;9.456;2023-07-13T14:53:11;27.80;62.40
18384;DHT22;9318;48.644;9.456;2023-07-13T14:55:38;27.70;63.30
18384;DHT22;9318;48.644;9.456;2023-07-13T14:58:05;27.80;60.70
18384;DHT22;9318;48.644;9.456;2023-07-13T15:00:33;27.70;63.10
18384;DHT22;9318;48.644;9.456;2023-07-13T15:03:00;27.70;61.00
18384;DHT22;9318;48.644;9.456;2023-07-13T15:05:29;27.60;62.30
18384;DHT22;9318;48.644;9.456;2023-07-13T15:07:57;27.40;60.70
18384;DHT22;9318;48.644;9.456;2023-07-13T15:10:27;27.10;61.80
18384;DHT22;9318;48.644;9.456;2023-07-13T15:12:58;26.90;60.40
18384;DHT22;9318;48.644;9.456;2023-07-13T15:15:26;26.80;63.00
18384;DHT22;9318;48.644;9.456;2023-07-13T15:17:53;26.70;62.80
18384;DHT22;9318;48.644;9.456;2023-07-13T15:20:26;26.60;64.60
18384;DHT22;9318;48.644;9.456;2023-07-13T15:22:53;26.60;63.70
18384;DHT22;9318;48.644;9.456;2023-07-13T15:25:22;26.60;65.10
18384;DHT22;9318;48.644;9.456;2023-07-13T15:27:51;26.50;63.70
18384;DHT22;9318;48.644;9.456;2023-07-13T15:30:18;26.40;64.40
18384;DHT22;9318;48.644;9.456;2023-07-13T15:32:46;26.50;64.10
18384;DHT22;9318;48.644;9.456;2023-07-13T15:35:15;26.60;65.20
18384;DHT22;9318;48.644;9.456;2023-07-13T15:37:42;26.80;64.40
18384;DHT22;9318;48.644;9.456;2023-07-13T15:40:10;26.90;64.70
18384;DHT22;9318;48.644;9.456;2023-07-13T15:42:37;27.00;63.00
18384;DHT22;9318;48.644;9.456;2023-07-13T15:45:14;26.90;65.10
18384;DHT22;9318;48.644;9.456;2023-07-13T15:47:41;26.90;63.00
18384;DHT22;9318;48.644;9.456;2023-07-13T15:50:12;26.90;63.10
18384;DHT22;9318;48.644;9.456;2023-07-13T15:52:39;26.80;62.80
18384;DHT22;9318;48.644;9.456;2023-07-13T15:55:10;26.70;62.00
18384;DHT22;9318;48.644;9.456;2023-07-13T15:57:37;26.60;64.70